Time;durP1;ratioP1;P1;durP2;ratioP2;P2;SDS_P1;SDS_P2;PMS_P1;PMS_P2;Temp;Humidity;BMP_temperature;BMP_pressure;BME280_temperature;BME280_humidity;BME280_pressure;Samples;Min_cycle;Max_cycle;Signal;HPM_P1;HPM_P2
2024/03/17 00:02:21;;;;;;;5.13;3.50;;;8.30;99.90;;;;;;5034455;28;20435;-67
2024/03/17 00:04:47;;;;;;;4.00;3.20;;;8.30;99.90;;;;;;5035187;28;20483;-66
2024/03/17 00:07:13;;;;;;;2.90;2.70;;;8.30;99.90;;;;;;5034234;28;20437;-66
2024/03/17 00:09:40;;;;;;;4.73;3.23;;;8.30;99.90;;;;;;5035040;28;20209;-67
2024/03/17 00:12:07;;;;;;;3.60;3.20;;;8.30;99.90;;;;;;5034840;28;20472;-67
2024/03/17 00:14:34;;;;;;;3.43;3.10;;;8.30;99.90;;;;;;5033864;28;20528;-67
2024/03/17 00:17:01;;;;;;;3.53;3.00;;;8.30;99.90;;;;;;5034828;28;20428;-66
2024/03/17 00:19:26;;;;;;;7.20;3.40;;;8.30;99.90;;;;;;5034608;28;20437;-66
2024/03/17 00:21:53;;;;;;;5.60;3.40;;;8.20;99.90;;;;;;5034204;28;20489;-67
2024/03/17 00:24:19;;;;;;;5.20;3.90;;;8.20;99.90;;;;;;5032825;28;20528;-67
2024/03/17 00:26:49;;;;;;;3.73;2.90;;;8.20;99.90;;;;;;5033170;28;20474;-66
2024/03/17 00:29:15;;;;;;;4.63;3.27;;;8.20;99.90;;;;;;5034044;28;20530;-67
2024/03/17 00:31:41;;;;;;;4.57;2.90;;;8.20;99.90;;;;;;5033974;28;20421;-66
2024/03/17 00:34:07;;;;;;;7.23;3.20;;;8.10;99.90;;;;;;5034192;28;21198;-66
2024/03/17 00:36:33;;;;;;;4.97;3.10;;;8.10;99.90;;;;;;5034302;28;20432;-67
2024/03/17 00:39:00;;;;;;;5.87;3.37;;;8.10;99.90;;;;;;5031441;28;20193;-67
2024/03/17 00:41:25;;;;;;;4.23;3.20;;;8.00;99.90;;;;;;5034431;28;20471;-68
2024/03/17 00:43:52;;;;;;;4.70;3.30;;;8.00;99.90;;;;;;5034234;28;20817;-66
2024/03/17 00:46:21;;;;;;;6.77;3.67;;;8.00;99.90;;;;;;5033896;28;20272;-66
2024/03/17 00:48:50;;;;;;;5.37;2.90;;;7.90;99.90;;;;;;5033908;28;20466;-67
2024/03/17 00:51:16;;;;;;;5.40;3.40;;;7.80;99.90;;;;;;5033818;28;20456;-67
2024/03/17 00:53:42;;;;;;;6.23;3.30;;;7.70;99.90;;;;;;5034255;28;20436;-67
2024/03/17 00:56:08;;;;;;;7.30;3.00;;;7.60;99.90;;;;;;5033795;28;20431;-67
2024/03/17 00:58:34;;;;;;;6.97;3.10;;;7.60;99.90;;;;;;5033031;28;20425;-67
2024/03/17 01:00:59;;;;;;;5.03;3.17;;;7.70;99.90;;;;;;5033154;28;20439;-66
2024/03/17 01:03:26;;;;;;;6.60;3.50;;;7.60;99.90;;;;;;5034260;28;20186;-66
2024/03/17 01:05:52;;;;;;;5.90;4.00;;;7.60;99.90;;;;;;5033078;28;20259;-67
2024/03/17 01:08:18;;;;;;;4.10;3.63;;;7.50;99.90;;;;;;5033172;28;20811;-66
2024/03/17 01:10:47;;;;;;;4.10;3.63;;;7.50;99.90;;;;;;5048576;28;20475;-66
2024/03/17 01:13:13;;;;;;;4.17;3.57;;;7.40;99.90;;;;;;5034439;28;20837;-66
2024/03/17 01:15:39;;;;;;;5.90;3.63;;;7.40;99.90;;;;;;5032637;28;20436;-67
2024/03/17 01:18:06;;;;;;;7.93;4.30;;;7.40;99.90;;;;;;5033417;28;20426;-67
2024/03/17 01:20:33;;;;;;;4.57;3.30;;;7.40;99.90;;;;;;5033838;28;20424;-66
2024/03/17 01:22:59;;;;;;;6.00;4.47;;;7.40;99.90;;;;;;5033067;28;20528;-66
2024/03/17 01:25:29;;;;;;;4.77;3.60;;;7.40;99.90;;;;;;5032752;28;20437;-66
2024/03/17 01:27:55;;;;;;;4.87;3.37;;;7.40;99.90;;;;;;5033466;28;20270;-67
2024/03/17 01:30:21;;;;;;;6.70;4.00;;;7.40;99.90;;;;;;5033294;28;20471;-67
2024/03/17 01:32:47;;;;;;;7.40;3.90;;;7.30;99.90;;;;;;5033985;28;20421;-67
2024/03/17 01:35:13;;;;;;;3.97;3.57;;;7.30;99.90;;;;;;5034052;28;20196;-65
2024/03/17 01:37:39;;;;;;;4.10;3.70;;;7.20;99.90;;;;;;5033222;28;20429;-67
2024/03/17 01:40:09;;;;;;;6.37;4.27;;;7.20;99.90;;;;;;5032088;28;21081;-67
2024/03/17 01:42:35;;;;;;;5.63;4.00;;;7.20;99.90;;;;;;5032877;28;20441;-66
2024/03/17 01:45:01;;;;;;;6.37;3.53;;;7.20;99.90;;;;;;5032855;28;20951;-66
2024/03/17 01:47:27;;;;;;;6.00;3.67;;;7.20;99.90;;;;;;5032233;28;20550;-66
2024/03/17 01:49:54;;;;;;;5.47;3.17;;;7.20;99.90;;;;;;5032736;28;20479;-67
2024/03/17 01:52:20;;;;;;;5.07;4.03;;;7.10;99.90;;;;;;5032004;28;20435;-66
2024/03/17 01:54:47;;;;;;;5.60;4.00;;;7.10;99.90;;;;;;5032892;28;20438;-67
2024/03/17 01:57:13;;;;;;;4.40;3.50;;;7.10;99.90;;;;;;5048346;28;20941;-67
2024/03/17 01:59:39;;;;;;;5.40;3.93;;;7.10;99.90;;;;;;5033386;28;20425;-66
2024/03/17 02:02:06;;;;;;;6.73;3.87;;;7.10;99.90;;;;;;5031801;28;20775;-66
2024/03/17 02:04:31;;;;;;;7.50;4.10;;;7.10;99.90;;;;;;5033042;28;20432;-66
2024/03/17 02:06:57;;;;;;;5.60;4.03;;;7.10;99.90;;;;;;5032570;28;20424;-66
2024/03/17 02:09:23;;;;;;;5.93;3.77;;;7.00;99.90;;;;;;5032469;28;20209;-66
2024/03/17 02:11:48;;;;;;;4.80;3.77;;;7.00;99.90;;;;;;5032286;28;20190;-66
2024/03/17 02:14:17;;;;;;;6.27;3.67;;;7.10;99.90;;;;;;5032254;28;20275;-67
2024/03/17 02:16:43;;;;;;;6.27;3.93;;;7.00;99.90;;;;;;5032356;28;20190;-66
2024/03/17 02:19:09;;;;;;;4.97;3.60;;;7.00;99.90;;;;;;5032740;28;20425;-67
2024/03/17 02:21:35;;;;;;;5.37;3.60;;;7.10;99.90;;;;;;5032643;28;20428;-67
2024/03/17 02:24:01;;;;;;;5.67;3.60;;;7.10;99.90;;;;;;5033639;28;21281;-66
2024/03/17 02:26:27;;;;;;;4.10;3.43;;;7.10;99.90;;;;;;5034053;28;20789;-67
2024/03/17 02:28:53;;;;;;;9.73;4.17;;;7.10;99.90;;;;;;5032457;28;20465;-67
2024/03/17 02:31:19;;;;;;;4.10;3.57;;;7.00;99.90;;;;;;5033828;28;21426;-66
2024/03/17 02:33:45;;;;;;;5.27;3.50;;;7.00;99.90;;;;;;5032556;28;20181;-67
2024/03/17 02:36:12;;;;;;;5.40;3.73;;;7.00;99.90;;;;;;5032556;28;20433;-67
2024/03/17 02:41:25;;;;;;;5.33;3.57;;;7.00;99.90;;;;;;5033142;28;20447;-67
2024/03/17 02:43:50;;;;;;;6.23;4.07;;;7.00;99.90;;;;;;5033141;28;20429;-65
2024/03/17 02:46:18;;;;;;;5.27;3.77;;;7.00;99.90;;;;;;5033034;28;20432;-66
2024/03/17 02:48:47;;;;;;;7.23;3.53;;;7.00;99.90;;;;;;5033357;28;20185;-67
2024/03/17 02:51:19;;;;;;;4.80;3.73;;;6.90;99.90;;;;;;5032324;28;20514;-66
2024/03/17 02:53:45;;;;;;;5.50;4.13;;;6.90;99.90;;;;;;5033826;28;20448;-66
2024/03/17 02:56:11;;;;;;;5.80;4.60;;;6.80;99.90;;;;;;5031450;28;20428;-67
2024/03/17 02:58:38;;;;;;;5.80;3.93;;;6.80;99.90;;;;;;5032417;28;20435;-66
2024/03/17 03:01:05;;;;;;;7.73;3.83;;;6.70;99.90;;;;;;5031755;28;20465;-67
2024/03/17 03:03:31;;;;;;;7.10;3.73;;;6.80;99.90;;;;;;5032553;28;20528;-66
2024/03/17 03:05:58;;;;;;;7.63;4.23;;;6.80;99.90;;;;;;5032423;28;20960;-67
2024/03/17 03:08:24;;;;;;;5.43;3.77;;;6.80;99.90;;;;;;5032415;28;20476;-66
2024/03/17 03:10:50;;;;;;;4.97;3.67;;;6.70;99.90;;;;;;5032783;28;20600;-66
2024/03/17 03:13:16;;;;;;;4.90;3.90;;;6.70;99.90;;;;;;5032044;28;20519;-66
2024/03/17 03:15:43;;;;;;;4.60;3.53;;;6.70;99.90;;;;;;5032373;28;20435;-67
2024/03/17 03:18:09;;;;;;;5.50;4.10;;;6.70;99.90;;;;;;5031692;28;20216;-65
2024/03/17 03:20:35;;;;;;;6.03;4.27;;;6.70;99.90;;;;;;5032327;28;20436;-66
2024/03/17 03:23:02;;;;;;;3.97;3.50;;;6.60;99.90;;;;;;5031831;28;20991;-66
2024/03/17 03:25:28;;;;;;;8.93;4.10;;;6.60;99.90;;;;;;5032432;28;20428;-67
2024/03/17 03:27:56;;;;;;;8.60;4.00;;;6.60;99.90;;;;;;5031614;28;20481;-67
2024/03/17 03:30:22;;;;;;;5.87;4.33;;;6.60;99.90;;;;;;5031240;28;21049;-68
2024/03/17 03:32:48;;;;;;;6.03;3.93;;;6.50;99.90;;;;;;5032404;28;20428;-67
2024/03/17 03:35:14;;;;;;;6.20;3.80;;;6.40;99.90;;;;;;5031256;28;20444;-66
2024/03/17 03:37:41;;;;;;;5.37;3.67;;;6.40;99.90;;;;;;5031889;28;20521;-67
2024/03/17 03:40:17;;;;;;;5.70;4.10;;;6.40;99.90;;;;;;5029580;28;20428;-67
2024/03/17 03:42:45;;;;;;;7.03;5.00;;;6.40;99.90;;;;;;5031480;28;20799;-67
2024/03/17 03:45:14;;;;;;;5.60;3.70;;;6.40;99.90;;;;;;5031221;28;20437;-67
2024/03/17 03:47:42;;;;;;;4.67;4.27;;;6.50;99.90;;;;;;5031277;28;20487;-67
2024/03/17 03:50:09;;;;;;;5.83;4.70;;;6.50;99.90;;;;;;5031019;28;20862;-68
2024/03/17 03:52:40;;;;;;;4.67;3.77;;;6.50;99.90;;;;;;5031925;28;20436;-67
2024/03/17 03:55:07;;;;;;;5.27;4.37;;;6.50;99.90;;;;;;5030817;28;20424;-66
2024/03/17 03:57:33;;;;;;;9.10;4.70;;;6.50;99.90;;;;;;5030527;28;20425;-67
2024/03/17 04:00:00;;;;;;;5.13;4.67;;;6.50;99.90;;;;;;5032454;28;20424;-67
2024/03/17 04:02:31;;;;;;;6.23;4.83;;;6.60;99.90;;;;;;5030432;28;20528;-67
2024/03/17 04:04:57;;;;;;;6.30;4.63;;;6.70;99.90;;;;;;5031196;28;20443;-67
2024/03/17 04:07:23;;;;;;;7.57;5.00;;;6.70;99.90;;;;;;5031035;28;20429;-66
2024/03/17 04:09:49;;;;;;;6.90;5.03;;;6.70;99.90;;;;;;5032891;28;20481;-67
2024/03/17 04:12:15;;;;;;;6.10;4.90;;;6.80;99.90;;;;;;5031180;28;20433;-67
2024/03/17 04:14:40;;;;;;;6.60;5.60;;;6.80;99.90;;;;;;5031513;28;20183;-67
2024/03/17 04:17:06;;;;;;;6.50;4.90;;;6.80;99.90;;;;;;5031784;28;20600;-68
2024/03/17 04:19:32;;;;;;;7.80;6.13;;;6.80;99.90;;;;;;5031270;28;20214;-68
2024/03/17 04:21:58;;;;;;;8.13;5.60;;;6.80;99.90;;;;;;5029350;28;20284;-67
2024/03/17 04:24:23;;;;;;;7.87;5.97;;;6.80;99.90;;;;;;5030822;28;20196;-67
2024/03/17 04:26:49;;;;;;;8.60;6.20;;;6.80;99.90;;;;;;5031296;28;20192;-66
2024/03/17 04:29:15;;;;;;;8.63;5.90;;;6.80;99.90;;;;;;5031320;28;20917;-68
2024/03/17 04:31:42;;;;;;;8.77;6.60;;;6.70;99.90;;;;;;5031529;28;20260;-67
2024/03/17 04:34:07;;;;;;;11.40;6.93;;;6.70;99.90;;;;;;5031199;28;20271;-67
2024/03/17 04:36:33;;;;;;;12.70;7.00;;;6.70;99.90;;;;;;5030829;28;20420;-68
2024/03/17 04:38:58;;;;;;;8.07;6.50;;;6.70;99.90;;;;;;5028319;28;20182;-67
2024/03/17 04:41:24;;;;;;;8.80;6.20;;;6.70;99.90;;;;;;5034690;28;20194;-67
2024/03/17 04:43:50;;;;;;;10.40;6.73;;;6.60;99.90;;;;;;5035427;28;20185;-67
2024/03/17 04:46:15;;;;;;;10.63;7.43;;;6.70;99.90;;;;;;5034421;28;20186;-67
2024/03/17 04:48:41;;;;;;;10.20;7.10;;;6.60;99.90;;;;;;5033546;28;20252;-68
2024/03/17 04:51:07;;;;;;;8.13;6.80;;;6.60;99.90;;;;;;5034085;28;20178;-67
2024/03/17 04:53:33;;;;;;;11.23;7.47;;;6.70;99.90;;;;;;5034783;28;20190;-67
2024/03/17 04:56:04;;;;;;;9.60;7.33;;;6.70;99.90;;;;;;5034594;28;20184;-67
2024/03/17 04:58:33;;;;;;;13.43;7.10;;;6.70;99.90;;;;;;5034117;28;20239;-66
2024/03/17 05:01:08;;;;;;;9.67;7.03;;;6.80;99.90;;;;;;5033914;28;20432;-67
2024/03/17 05:03:34;;;;;;;12.80;7.73;;;6.90;99.90;;;;;;5034766;28;20423;-66
2024/03/17 05:06:04;;;;;;;10.23;7.20;;;6.90;99.90;;;;;;5034704;28;20508;-66
2024/03/17 05:08:30;;;;;;;12.60;7.33;;;6.90;99.90;;;;;;5033951;28;21010;-67
2024/03/17 05:10:57;;;;;;;9.10;6.93;;;6.90;99.90;;;;;;5034096;28;20471;-67
2024/03/17 05:13:23;;;;;;;11.50;6.93;;;6.90;99.90;;;;;;5034060;28;20468;-67
2024/03/17 05:15:49;;;;;;;12.93;8.40;;;6.90;99.90;;;;;;5034437;28;20535;-67
2024/03/17 05:18:15;;;;;;;13.17;8.40;;;6.80;99.90;;;;;;5034317;28;20455;-67
2024/03/17 05:20:40;;;;;;;12.27;8.30;;;6.70;99.90;;;;;;5033662;28;20197;-66
2024/03/17 05:23:06;;;;;;;12.87;9.30;;;6.70;99.90;;;;;;5033935;28;20185;-66
2024/03/17 05:25:36;;;;;;;12.53;7.90;;;6.60;99.90;;;;;;5033489;28;20194;-68
2024/03/17 05:28:02;;;;;;;11.40;7.97;;;6.40;99.90;;;;;;5032995;28;20725;-66
2024/03/17 05:30:28;;;;;;;15.37;9.50;;;6.60;99.90;;;;;;5033615;28;20477;-66
2024/03/17 05:32:54;;;;;;;11.20;8.47;;;6.50;99.90;;;;;;5034602;28;20433;-67
2024/03/17 05:35:20;;;;;;;17.90;8.97;;;6.60;99.90;;;;;;5034656;28;20425;-67
2024/03/17 05:37:45;;;;;;;20.53;8.83;;;6.60;99.90;;;;;;5033439;28;20183;-67
2024/03/17 05:40:14;;;;;;;15.57;9.13;;;6.60;99.90;;;;;;5032426;28;20198;-67
2024/03/17 05:42:43;;;;;;;12.50;8.80;;;6.50;99.90;;;;;;5033196;28;20685;-67
2024/03/17 05:45:12;;;;;;;12.77;8.53;;;6.60;99.90;;;;;;5033185;28;20447;-67
2024/03/17 05:47:38;;;;;;;12.03;7.73;;;6.50;99.90;;;;;;5032104;28;20456;-67
2024/03/17 05:50:04;;;;;;;16.20;9.87;;;6.50;99.90;;;;;;5031899;28;20473;-66
2024/03/17 05:52:30;;;;;;;15.40;8.57;;;6.50;99.90;;;;;;5033251;28;20450;-67
2024/03/17 05:54:56;;;;;;;11.93;8.83;;;6.60;99.90;;;;;;5033780;28;20430;-67
2024/03/17 05:57:24;;;;;;;15.27;8.87;;;6.60;99.90;;;;;;5033594;28;20193;-67
2024/03/17 05:59:49;;;;;;;12.83;9.00;;;6.50;99.90;;;;;;5033091;28;20644;-67
2024/03/17 06:02:15;;;;;;;10.10;8.43;;;6.60;99.90;;;;;;5032951;28;20444;-66
2024/03/17 06:04:41;;;;;;;13.87;8.73;;;6.60;99.90;;;;;;5033701;28;20431;-67
2024/03/17 06:07:07;;;;;;;12.13;8.13;;;6.60;99.90;;;;;;5032264;28;20443;-66
2024/03/17 06:09:33;;;;;;;11.93;8.43;;;6.60;99.90;;;;;;5031458;28;20483;-67
2024/03/17 06:11:58;;;;;;;11.80;8.70;;;6.60;99.90;;;;;;5033069;28;20190;-67
2024/03/17 06:14:24;;;;;;;12.57;8.57;;;6.60;99.90;;;;;;5033814;28;20181;-67
2024/03/17 06:16:50;;;;;;;14.97;8.87;;;6.60;99.90;;;;;;5033161;28;20182;-67
2024/03/17 06:19:15;;;;;;;12.37;8.30;;;6.60;99.90;;;;;;5032639;28;20208;-68
2024/03/17 06:21:41;;;;;;;11.33;7.63;;;6.60;99.90;;;;;;5032346;28;20186;-67
2024/03/17 06:24:07;;;;;;;11.00;7.87;;;6.60;99.90;;;;;;5032443;28;20178;-67
2024/03/17 06:26:34;;;;;;;12.60;8.80;;;6.60;99.90;;;;;;5032466;28;20463;-67
2024/03/17 06:29:00;;;;;;;11.57;7.67;;;6.70;99.90;;;;;;5032488;28;20273;-67
2024/03/17 06:31:26;;;;;;;9.97;7.53;;;6.80;99.90;;;;;;5032081;28;20534;-67
2024/03/17 06:33:52;;;;;;;10.10;7.43;;;6.80;99.90;;;;;;5032897;28;21356;-67
2024/03/17 06:36:17;;;;;;;13.17;7.33;;;6.90;99.90;;;;;;5031681;28;20189;-68
2024/03/17 06:38:43;;;;;;;9.27;7.67;;;7.00;99.90;;;;;;5030555;28;20201;-67
2024/03/17 06:41:14;;;;;;;12.90;8.80;;;7.00;99.90;;;;;;5031420;28;20192;-67
2024/03/17 06:43:41;;;;;;;10.53;8.00;;;7.00;99.90;;;;;;5031191;28;20432;-67
2024/03/17 06:46:07;;;;;;;10.77;7.60;;;7.10;99.90;;;;;;5032221;28;20524;-68
2024/03/17 06:48:33;;;;;;;14.20;6.60;;;7.00;99.90;;;;;;5031311;28;20428;-67
2024/03/17 06:50:59;;;;;;;11.57;8.20;;;7.10;99.90;;;;;;5031542;28;20478;-67
2024/03/17 06:53:28;;;;;;;9.90;7.57;;;7.10;99.90;;;;;;5032367;28;20445;-67
2024/03/17 06:55:58;;;;;;;8.40;7.23;;;7.10;99.90;;;;;;5031290;28;20221;-66
2024/03/17 06:58:26;;;;;;;9.77;6.57;;;7.10;99.90;;;;;;5031774;28;20443;-66
2024/03/17 07:01:00;;;;;;;9.63;6.93;;;7.20;99.90;;;;;;5031917;28;20467;-66
2024/03/17 07:03:27;;;;;;;7.70;6.30;;;7.20;99.90;;;;;;5031222;28;20437;-68
2024/03/17 07:05:57;;;;;;;7.57;6.23;;;7.30;99.90;;;;;;5031017;28;20568;-67
2024/03/17 07:08:24;;;;;;;9.57;6.67;;;7.30;99.90;;;;;;5030544;28;20529;-67
2024/03/17 07:11:01;;;;;;;8.30;5.50;;;7.30;99.90;;;;;;5031170;28;20985;-68
2024/03/17 07:13:32;;;;;;;5.90;5.13;;;7.30;99.90;;;;;;5031597;28;20517;-66
2024/03/17 07:15:59;;;;;;;7.80;5.80;;;7.30;99.90;;;;;;5031162;28;20455;-66
2024/03/17 07:18:26;;;;;;;7.37;5.87;;;7.40;99.90;;;;;;5030594;28;20426;-67
2024/03/17 07:20:52;;;;;;;6.50;5.77;;;7.50;99.90;;;;;;5031316;28;20421;-68
2024/03/17 07:23:18;;;;;;;10.27;5.23;;;7.60;99.90;;;;;;5030599;28;20435;-66
2024/03/17 07:25:53;;;;;;;8.13;4.93;;;7.60;99.90;;;;;;5031540;28;20182;-67
2024/03/17 07:28:19;;;;;;;7.50;5.80;;;7.70;99.90;;;;;;5030309;28;20182;-67
2024/03/17 07:30:52;;;;;;;7.00;5.23;;;7.80;99.90;;;;;;5031087;28;20468;-66
2024/03/17 07:33:20;;;;;;;8.80;6.17;;;8.00;99.90;;;;;;5031946;28;20193;-67
2024/03/17 07:35:54;;;;;;;6.17;5.37;;;8.10;99.90;;;;;;5031114;28;20433;-67
2024/03/17 07:38:21;;;;;;;6.90;5.40;;;8.30;99.90;;;;;;5030215;28;21101;-67
2024/03/17 07:41:13;;;;;;;6.77;4.83;;;8.40;99.90;;;;;;5030749;28;20452;-67
2024/03/17 07:43:39;;;;;;;6.60;5.07;;;8.50;99.90;;;;;;5031033;28;20435;-66
2024/03/17 07:46:07;;;;;;;5.83;4.87;;;8.70;99.90;;;;;;5031257;28;20870;-68
2024/03/17 07:48:34;;;;;;;6.30;4.27;;;8.70;99.90;;;;;;5031062;28;20220;-67
2024/03/17 07:51:06;;;;;;;6.27;4.60;;;8.80;99.90;;;;;;5030087;28;20474;-67
2024/03/17 07:53:33;;;;;;;6.03;4.40;;;9.00;99.90;;;;;;5031072;28;20460;-68
2024/03/17 07:56:05;;;;;;;5.87;4.40;;;9.00;99.90;;;;;;5029627;28;20944;-68
2024/03/17 07:58:35;;;;;;;5.80;4.80;;;9.00;99.90;;;;;;5030185;28;20465;-67
2024/03/17 08:01:02;;;;;;;6.73;4.30;;;9.10;99.90;;;;;;5030327;28;20431;-67
2024/03/17 08:03:34;;;;;;;4.50;3.83;;;9.20;99.90;;;;;;5030954;28;20463;-67
2024/03/17 08:06:01;;;;;;;4.50;3.80;;;9.20;99.90;;;;;;5029852;28;20427;-67
2024/03/17 08:08:27;;;;;;;5.40;4.43;;;9.50;99.90;;;;;;5030386;28;20508;-67
2024/03/17 08:10:53;;;;;;;5.17;4.60;;;9.60;99.90;;;;;;5030821;28;20464;-67
2024/03/17 08:13:20;;;;;;;5.00;4.50;;;9.80;99.90;;;;;;5030430;28;20434;-67
2024/03/17 08:15:54;;;;;;;6.50;5.30;;;10.00;99.90;;;;;;5034216;28;20787;-68
2024/03/17 08:18:20;;;;;;;6.00;4.00;;;10.20;99.90;;;;;;5034156;28;20432;-67
2024/03/17 08:20:46;;;;;;;5.20;4.07;;;10.30;99.90;;;;;;5035230;28;20457;-68
2024/03/17 08:23:13;;;;;;;4.20;3.37;;;10.40;99.90;;;;;;5034778;28;20178;-68
2024/03/17 08:25:39;;;;;;;4.60;3.60;;;10.40;99.90;;;;;;5033947;28;21082;-67
2024/03/17 08:28:07;;;;;;;4.10;3.23;;;10.40;99.90;;;;;;5033842;28;20421;-67
2024/03/17 08:30:32;;;;;;;6.17;4.10;;;10.50;99.90;;;;;;5034197;28;20471;-67
2024/03/17 08:32:58;;;;;;;4.33;3.57;;;10.50;99.90;;;;;;5034367;28;20425;-68
2024/03/17 08:35:24;;;;;;;3.20;2.90;;;10.60;99.90;;;;;;5034066;28;20424;-68
2024/03/17 08:38:00;;;;;;;3.53;3.23;;;10.60;99.90;;;;;;5033828;28;20424;-68
2024/03/17 08:40:25;;;;;;;3.70;3.10;;;10.50;99.90;;;;;;5032592;28;20622;-68
2024/03/17 08:42:51;;;;;;;4.30;3.03;;;10.50;99.90;;;;;;5034562;28;20424;-68
2024/03/17 08:45:17;;;;;;;4.27;3.87;;;10.70;99.90;;;;;;5033816;28;20186;-67
2024/03/17 08:47:42;;;;;;;3.30;3.00;;;10.80;99.90;;;;;;5033939;28;20668;-67
2024/03/17 08:50:12;;;;;;;5.33;3.50;;;10.80;99.90;;;;;;5032096;28;20921;-67
2024/03/17 08:52:38;;;;;;;4.10;3.57;;;10.90;99.90;;;;;;5033915;28;20173;-67
2024/03/17 08:55:09;;;;;;;4.03;3.60;;;11.10;99.90;;;;;;5033479;28;20781;-67
2024/03/17 08:57:35;;;;;;;4.10;3.70;;;11.10;99.90;;;;;;5033418;28;20279;-67
2024/03/17 09:00:01;;;;;;;5.53;3.40;;;11.10;99.90;;;;;;5033797;28;20975;-67
2024/03/17 09:02:26;;;;;;;4.47;3.60;;;11.10;99.90;;;;;;5033810;28;20940;-68
2024/03/17 09:04:52;;;;;;;4.77;3.77;;;11.20;99.90;;;;;;5034153;28;20188;-68
2024/03/17 09:07:18;;;;;;;4.40;3.53;;;11.20;99.90;;;;;;5033239;28;20217;-67
2024/03/17 09:09:46;;;;;;;5.27;3.60;;;11.20;99.90;;;;;;5034072;28;20347;-67
2024/03/17 09:12:12;;;;;;;5.20;3.80;;;11.20;99.90;;;;;;5032584;28;20185;-66
2024/03/17 09:14:37;;;;;;;5.53;3.90;;;11.20;99.90;;;;;;5033319;28;20429;-68
2024/03/17 09:17:03;;;;;;;5.93;4.37;;;11.10;99.90;;;;;;5033631;28;20186;-68
2024/03/17 09:19:29;;;;;;;5.70;3.67;;;11.10;99.90;;;;;;5032604;28;20872;-68
2024/03/17 09:21:55;;;;;;;4.10;3.70;;;11.10;99.90;;;;;;5032752;28;20232;-68
2024/03/17 09:24:21;;;;;;;4.57;3.70;;;11.20;99.90;;;;;;5033178;28;20651;-67
2024/03/17 09:26:47;;;;;;;5.43;3.83;;;11.30;99.90;;;;;;5032834;28;20433;-68
2024/03/17 09:29:15;;;;;;;4.67;4.27;;;11.50;99.90;;;;;;5033567;28;20475;-67
2024/03/17 09:31:41;;;;;;;3.97;3.57;;;11.50;99.90;;;;;;5033694;28;20944;-67
2024/03/17 09:34:07;;;;;;;5.93;4.07;;;11.50;99.90;;;;;;5033566;28;20425;-67
2024/03/17 09:36:33;;;;;;;4.87;3.60;;;11.50;99.90;;;;;;5034381;28;20439;-67
2024/03/17 09:39:00;;;;;;;5.10;4.00;;;11.50;99.90;;;;;;5032629;28;20421;-68
2024/03/17 09:41:27;;;;;;;4.10;3.70;;;11.50;99.90;;;;;;5033852;28;20184;-67
2024/03/17 09:43:57;;;;;;;9.40;4.53;;;11.60;99.90;;;;;;5034242;28;20433;-68
2024/03/17 09:46:25;;;;;;;9.90;4.23;;;11.60;99.90;;;;;;5033926;28;20540;-67
2024/03/17 09:48:51;;;;;;;5.73;3.80;;;11.70;99.90;;;;;;5033350;28;20425;-67
2024/03/17 09:51:22;;;;;;;4.30;3.90;;;11.70;99.90;;;;;;5033502;28;20458;-68
2024/03/17 09:53:48;;;;;;;4.20;3.80;;;11.60;99.90;;;;;;5033759;28;20490;-68
2024/03/17 09:56:17;;;;;;;4.93;4.00;;;11.60;99.90;;;;;;5033379;28;20429;-68
2024/03/17 09:58:43;;;;;;;4.30;3.80;;;11.60;99.90;;;;;;5033047;28;20445;-68
2024/03/17 10:01:09;;;;;;;4.30;3.83;;;11.60;99.90;;;;;;5032972;28;21201;-68
2024/03/17 10:04:03;;;;;;;4.50;3.80;;;11.70;99.90;;;;;;5033596;28;20194;-67
2024/03/17 10:06:30;;;;;;;4.63;4.23;;;11.70;99.90;;;;;;5033461;28;21396;-66
2024/03/17 10:09:15;;;;;;;4.90;3.93;;;11.70;99.90;;;;;;5032831;28;20951;-67
2024/03/17 10:11:41;;;;;;;5.20;3.57;;;11.70;99.90;;;;;;5032892;28;20417;-67
2024/03/17 10:14:10;;;;;;;4.90;3.70;;;11.80;99.90;;;;;;5033929;28;20452;-69
2024/03/17 10:16:37;;;;;;;5.17;4.30;;;11.90;99.90;;;;;;5033270;28;20954;-67
2024/03/17 10:19:10;;;;;;;5.40;3.20;;;11.90;99.90;;;;;;5033105;28;20818;-67
2024/03/17 10:21:40;;;;;;;5.07;3.60;;;11.90;99.90;;;;;;5032737;28;20855;-67
2024/03/17 10:24:13;;;;;;;6.70;4.00;;;11.90;99.90;;;;;;5032727;28;20429;-68
2024/03/17 10:26:46;;;;;;;4.20;3.80;;;11.90;99.90;;;;;;5033311;28;20450;-68
2024/03/17 10:29:24;;;;;;;5.60;3.43;;;11.90;99.90;;;;;;5032026;28;20522;-68
2024/03/17 10:32:02;;;;;;;4.00;3.60;;;11.90;99.90;;;;;;5032390;28;20420;-68
2024/03/17 10:34:34;;;;;;;7.33;3.17;;;11.80;99.90;;;;;;5033247;28;20547;-69
2024/03/17 10:37:22;;;;;;;4.67;3.80;;;11.90;99.90;;;;;;5031742;28;20490;-68
2024/03/17 10:39:50;;;;;;;4.00;3.40;;;11.90;99.90;;;;;;5031809;28;21399;-69
2024/03/17 10:42:24;;;;;;;4.30;3.90;;;11.90;99.90;;;;;;5031657;28;20432;-68
2024/03/17 10:44:50;;;;;;;6.57;3.73;;;11.90;99.90;;;;;;5033446;28;20466;-67
2024/03/17 10:47:24;;;;;;;4.40;3.70;;;11.80;99.90;;;;;;5031125;28;20443;-67
2024/03/17 10:49:52;;;;;;;4.27;3.70;;;11.80;99.90;;;;;;5033863;28;20209;-68
2024/03/17 10:52:18;;;;;;;4.20;3.80;;;12.00;99.90;;;;;;5032096;28;20437;-67
2024/03/17 10:54:52;;;;;;;5.20;4.10;;;12.00;99.90;;;;;;5032559;28;20422;-67
2024/03/17 10:57:32;;;;;;;4.60;3.80;;;12.10;99.90;;;;;;5032353;28;20428;-67
2024/03/17 11:00:08;;;;;;;5.63;4.10;;;12.20;99.90;;;;;;5032862;28;20456;-68
2024/03/17 11:02:36;;;;;;;5.80;4.10;;;12.30;99.90;;;;;;5032926;28;20431;-68
2024/03/17 11:05:13;;;;;;;4.00;3.60;;;12.30;99.90;;;;;;5032073;28;20433;-69
2024/03/17 11:07:45;;;;;;;5.30;4.77;;;12.20;99.90;;;;;;5014711;28;20423;-68
2024/03/17 11:10:21;;;;;;;3.90;3.57;;;12.20;99.90;;;;;;5033111;28;20562;-67
2024/03/17 11:12:56;;;;;;;4.93;4.17;;;12.40;99.90;;;;;;5031816;28;20420;-69
2024/03/17 11:15:33;;;;;;;3.73;3.30;;;12.50;99.90;;;;;;5031517;28;20459;-68
2024/03/17 11:18:11;;;;;;;5.97;3.77;;;12.60;99.90;;;;;;5032498;28;20473;-68
2024/03/17 11:20:41;;;;;;;5.03;4.20;;;12.60;99.90;;;;;;5031762;28;20493;-68
2024/03/17 11:23:09;;;;;;;7.60;4.63;;;12.80;99.90;;;;;;5031417;28;20433;-69
2024/03/17 11:25:40;;;;;;;5.33;4.07;;;12.90;99.90;;;;;;5031986;28;20441;-68
2024/03/17 11:28:10;;;;;;;5.70;4.30;;;13.00;99.90;;;;;;5031531;28;20428;-67
2024/03/17 11:30:47;;;;;;;5.43;4.27;;;13.10;99.90;;;;;;5030899;28;21193;-68
2024/03/17 11:33:37;;;;;;;6.83;4.40;;;13.10;99.90;;;;;;5032334;28;20444;-69
2024/03/17 11:36:22;;;;;;;5.07;4.57;;;13.10;99.90;;;;;;5031712;28;20432;-68
2024/03/17 11:39:28;;;;;;;6.80;4.13;;;13.10;99.90;;;;;;5030204;28;20486;-68
2024/03/17 11:41:54;;;;;;;4.90;4.20;;;13.20;99.90;;;;;;5031283;28;20785;-67
2024/03/17 11:44:26;;;;;;;5.33;4.20;;;13.20;99.90;;;;;;5032846;28;20594;-67
2024/03/17 11:46:55;;;;;;;4.10;3.70;;;13.20;99.90;;;;;;5031687;28;20591;-67
2024/03/17 11:49:28;;;;;;;6.17;4.70;;;13.20;99.90;;;;;;5029677;28;20472;-69
2024/03/17 11:51:57;;;;;;;5.07;4.57;;;13.10;99.90;;;;;;5031325;28;20852;-67
2024/03/17 11:54:27;;;;;;;5.80;4.53;;;13.00;99.90;;;;;;5032050;28;20464;-67
2024/03/17 11:56:54;;;;;;;4.63;3.80;;;13.00;99.90;;;;;;5031001;28;20487;-67
2024/03/17 11:59:22;;;;;;;4.37;3.97;;;13.00;99.90;;;;;;5032321;28;20435;-68
2024/03/17 12:01:49;;;;;;;10.00;4.30;;;13.10;99.90;;;;;;5030290;28;20431;-69
2024/03/17 12:04:16;;;;;;;4.80;4.23;;;12.90;99.90;;;;;;5030816;28;20834;-69
2024/03/17 12:06:52;;;;;;;5.13;4.63;;;12.90;99.90;;;;;;5030580;28;21022;-68
2024/03/17 12:09:29;;;;;;;4.50;3.80;;;13.00;99.90;;;;;;5031585;28;20526;-68
2024/03/17 12:12:13;;;;;;;4.97;4.40;;;13.00;99.90;;;;;;5031069;28;20417;-67
2024/03/17 12:14:40;;;;;;;5.03;3.80;;;13.10;99.90;;;;;;5032279;28;20416;-67
2024/03/17 12:17:12;;;;;;;6.27;4.60;;;13.20;99.90;;;;;;5031172;28;20436;-69
2024/03/17 12:19:38;;;;;;;4.50;4.13;;;13.20;99.90;;;;;;5031730;28;20446;-68
2024/03/17 12:22:05;;;;;;;5.53;4.30;;;13.10;99.90;;;;;;5030571;28;20430;-67
2024/03/17 12:24:36;;;;;;;5.43;4.93;;;13.10;99.90;;;;;;5032964;28;20425;-67
2024/03/17 12:27:05;;;;;;;4.47;4.03;;;13.10;99.90;;;;;;5031500;28;20854;-68
2024/03/17 12:29:41;;;;;;;7.30;5.00;;;13.20;99.90;;;;;;5032153;28;20468;-69
2024/03/17 12:32:21;;;;;;;5.20;4.70;;;13.30;99.90;;;;;;5030728;28;20424;-67
2024/03/17 12:34:51;;;;;;;4.87;4.37;;;13.40;99.90;;;;;;5030247;28;20918;-67
2024/03/17 12:37:33;;;;;;;6.17;4.53;;;13.50;99.90;;;;;;5030872;28;21298;-68
2024/03/17 12:39:59;;;;;;;6.37;4.80;;;13.50;99.90;;;;;;5030019;28;20416;-67
2024/03/17 12:42:28;;;;;;;6.67;4.20;;;13.70;99.90;;;;;;5031263;28;20437;-69
2024/03/17 12:44:58;;;;;;;5.00;3.67;;;13.70;99.90;;;;;;5030363;28;20425;-67
2024/03/17 12:47:31;;;;;;;5.50;4.00;;;13.80;99.90;;;;;;5030542;28;20489;-68
2024/03/17 12:49:58;;;;;;;5.80;4.00;;;13.90;99.90;;;;;;5031303;28;20471;-68
2024/03/17 12:52:33;;;;;;;4.77;4.30;;;13.90;99.90;;;;;;5031386;28;21203;-69
2024/03/17 13:00:32;;;;;;;7.50;4.60;;;14.00;99.90;;;;;;5032625;28;20439;-67
2024/03/17 13:02:58;;;;;;;7.60;4.17;;;14.10;99.90;;;;;;5033742;28;20913;-68
2024/03/17 13:05:24;;;;;;;7.40;4.63;;;14.10;99.90;;;;;;5035667;28;20964;-68